Aérodrome :
LOGIN :

S'inscrire | Disclaimer

   EN    FR    IT 

 










Légende :    VFR   VFR Marginal   IFR   IFR Intensif   IFR Très Intensif
Visi : 
Plafond : 
>= 8 km
>= 3000ft
5 à 8 km
1000 à 3000 ft
1500m à 5 km
500 à 1000 ft
800 à 1500m
200 à 500 ft
< 800m
< 200 ft
Symboles :   Orages  Brouillard  Fortes neiges  Fortes précipitations  Vent > 20 kt
SIGMETs :   Divers  Orages  Givrage  Turbulence  Onde Orograph.  Cendres Volcan.






- Altitude de l'aérodrome : 183 ft


LIBA - Amendola Foggia

DERNIER METAR :
  • 200455Z 23006KT 9999 FEW035 21/12 Q1012 RMK FEW VIS MIN 9999 WIND THR11 23008KT WIND THR29 /////KT BLU

METARs EXPIRÉS :
  • 200355Z 27002KT CAVOK 22/13 Q1011 RMK SKC VIS MIN 9999 WIND THR11 27006KT WIND THR29 /////KT BLU
  • 200255Z 25009KT CAVOK 22/16 Q1011 RMK SKC VIS MIN 9999 WIND THR11 25010KT WIND THR29 /////KT BLU

TAF TAF LIBA
Valide du 20 à 06h jusqu'au 20 à 15h UTC


200500Z 2006/2015 25012KT 9999 FEW030
TEMPO 2008/2012 25016G26KT
BECMG 2012/2014 09010KT SCT050



MET'MAP, la Météo Aéronautique d'un coup d'oeil ! - Copyright ORBIFLY Décembre 2007 - Disclaimer

ORBIFLY MET'MAP TEAM :

Programmation & Développement : Alexandra Zaïnal
Sur une idée originale de : Baudouin d'Aumeries
Assistance à la programmation : Marc-Olivier Méhu
Soutien technique & logistique : Manuel Goepfert

Contact : metmap@orbifly.com




SOURCES & CREDITS :

   NOAA